Terminal Aerodrome Forecast
Issued by NWS

Home | Current Version | Previous Version | Text Only | Print | Product List | Glossary On
Versions: 1 2 3 4 5 6 7 8 9 10 11 12 13 14
143
FTUS46 KSGX 270829 AAA
TAFSNA
TAF AMD
KSNA 270829Z 2709/2806 VRB06KT P6SM FEW010 SCT250
      TEMPO 2709/2711 BKN012
     FM271800 23012KT P6SM SCT250
     FM280200 VRB05KT P6SM SCT250=

USA.gov is the U.S. government's official web portal to all federal, state and local government web resources and services.